createdAt,value
2019-02-15T00:00:59.981Z,73.70
2019-02-15T00:03:33.960Z,73.90
2019-02-15T00:06:05.974Z,74.20
2019-02-15T00:08:38.126Z,73.70
2019-02-15T00:11:09.162Z,73.10
2019-02-15T00:13:41.015Z,73.10
2019-02-15T00:16:12.819Z,72.80
2019-02-15T00:19:02.602Z,72.70
2019-02-15T00:21:39.837Z,73.00
2019-02-15T00:24:10.865Z,73.30
2019-02-15T00:26:41.561Z,73.20
2019-02-15T00:29:12.519Z,72.70
2019-02-15T00:31:43.181Z,72.70
2019-02-15T00:34:13.873Z,72.40
2019-02-15T00:37:04.896Z,72.10
2019-02-15T00:39:35.729Z,72.20
2019-02-15T00:42:08.996Z,72.10
2019-02-15T00:44:40.601Z,72.00
2019-02-15T00:47:39.293Z,72.00
2019-02-15T00:50:21.443Z,71.90
2019-02-15T00:53:04.775Z,72.00
2019-02-15T00:55:42.776Z,72.10
2019-02-15T00:58:35.422Z,72.00
2019-02-15T01:01:21.297Z,71.60
2019-02-15T01:04:17.128Z,71.50
2019-02-15T01:07:06.544Z,71.70
2019-02-15T01:09:52.015Z,71.30
2019-02-15T01:12:25.664Z,71.50
2019-02-15T01:14:58.833Z,71.70
2019-02-15T01:17:29.444Z,72.00
2019-02-15T01:19:59.970Z,72.00
2019-02-15T01:22:30.516Z,72.20
2019-02-15T01:25:01.226Z,72.30
2019-02-15T01:28:06.251Z,72.70
2019-02-15T01:30:58.698Z,73.00
2019-02-15T01:33:48.232Z,73.50
2019-02-15T01:36:43.687Z,73.80
2019-02-15T01:39:29.699Z,74.40
2019-02-15T01:42:19.151Z,74.80
2019-02-15T01:44:55.446Z,75.30
2019-02-15T01:47:29.665Z,75.70
2019-02-15T01:50:00.414Z,76.30
2019-02-15T01:52:32.115Z,76.70
2019-02-15T01:55:02.816Z,77.00
2019-02-15T01:57:34.418Z,77.20
2019-02-15T02:00:07.266Z,77.30
2019-02-15T02:02:38.134Z,77.40
2019-02-15T02:05:08.771Z,77.50
2019-02-15T02:07:39.408Z,77.50
2019-02-15T02:10:12.158Z,77.20
2019-02-15T02:12:42.890Z,77.60
2019-02-15T02:15:14.577Z,77.60
2019-02-15T02:17:45.190Z,77.90
2019-02-15T02:20:15.775Z,78.20
2019-02-15T02:22:46.335Z,78.20
2019-02-15T02:25:17.011Z,78.40
2019-02-15T02:27:49.091Z,78.60
2019-02-15T02:30:19.723Z,78.60
2019-02-15T02:32:51.431Z,78.70
2019-02-15T02:35:22.016Z,78.90
2019-02-15T02:37:52.714Z,79.20
2019-02-15T02:40:23.347Z,79.40
2019-02-15T02:42:53.964Z,79.80
2019-02-15T02:45:24.528Z,80.10
2019-02-15T02:47:55.059Z,80.50
2019-02-15T02:50:25.520Z,80.90
2019-02-15T02:52:56.160Z,80.80
2019-02-15T02:55:26.618Z,81.10
2019-02-15T02:57:57.100Z,81.90
2019-02-15T03:00:33.565Z,82.10
2019-02-15T03:03:00.686Z,82.10
2019-02-15T03:05:32.555Z,81.80
2019-02-15T03:08:04.007Z,81.90
2019-02-15T03:10:34.966Z,81.90
2019-02-15T03:13:05.538Z,81.80
2019-02-15T03:15:36.368Z,81.80
2019-02-15T03:18:07.028Z,81.70
2019-02-15T03:20:37.563Z,81.70
2019-02-15T03:23:08.247Z,81.60
2019-02-15T03:25:38.966Z,81.50
2019-02-15T03:28:11.263Z,81.20
2019-02-15T03:30:41.876Z,81.50
2019-02-15T03:33:12.448Z,81.70
2019-02-15T03:35:55.239Z,81.80
2019-02-15T03:38:40.514Z,81.70
2019-02-15T03:41:26.504Z,81.80
2019-02-15T03:43:57.321Z,81.80
2019-02-15T03:46:27.862Z,81.90
2019-02-15T03:48:58.564Z,82.00
2019-02-15T03:51:29.112Z,82.10
2019-02-15T03:53:59.954Z,82.20
2019-02-15T03:56:30.514Z,82.10
2019-02-15T03:59:01.033Z,82.30
2019-02-15T04:01:31.634Z,82.70
2019-02-15T04:04:02.081Z,82.40
2019-02-15T04:06:32.568Z,82.70
2019-02-15T04:09:04.418Z,82.60
2019-02-15T04:11:36.069Z,83.10
2019-02-15T04:14:07.562Z,83.10
2019-02-15T04:16:38.117Z,83.20
2019-02-15T04:19:10.122Z,83.30
2019-02-15T04:21:40.714Z,83.40
2019-02-15T04:24:13.360Z,83.80
2019-02-15T04:26:43.611Z,84.00
2019-02-15T04:29:14.139Z,84.00
2019-02-15T04:31:44.738Z,84.10
2019-02-15T04:34:16.961Z,84.10
2019-02-15T04:36:47.617Z,84.10
2019-02-15T04:39:18.175Z,84.10
2019-02-15T04:41:49.011Z,84.10
2019-02-15T04:44:19.532Z,84.30
2019-02-15T04:46:50.287Z,84.50
2019-02-15T04:49:20.833Z,84.50
2019-02-15T04:51:51.349Z,85.00
2019-02-15T04:54:21.890Z,85.30
2019-02-15T04:56:53.596Z,85.60
2019-02-15T04:59:25.523Z,86.40
2019-02-15T05:01:56.159Z,86.70
2019-02-15T05:04:26.688Z,87.50
2019-02-15T05:06:57.333Z,88.30
2019-02-15T05:09:29.834Z,88.90
2019-02-15T05:12:01.051Z,89.90
2019-02-15T05:14:33.385Z,90.20
2019-02-15T05:17:04.023Z,90.70
2019-02-15T05:19:35.647Z,91.10
2019-02-15T05:22:06.253Z,91.40
2019-02-15T05:24:36.805Z,91.80
2019-02-15T05:27:09.584Z,92.60
2019-02-15T05:29:41.776Z,92.80
2019-02-15T05:32:13.389Z,93.00
2019-02-15T05:34:43.906Z,93.20
2019-02-15T05:37:15.707Z,93.60
2019-02-15T05:39:46.431Z,94.00
2019-02-15T05:42:17.150Z,93.90
2019-02-15T05:44:48.691Z,94.20
2019-02-15T05:47:19.282Z,94.40
2019-02-15T05:49:49.845Z,94.90
2019-02-15T05:52:20.519Z,95.30
2019-02-15T05:55:16.095Z,95.40
2019-02-15T05:57:46.771Z,95.40
2019-02-15T06:00:18.465Z,95.50
2019-02-15T06:02:51.116Z,95.80
2019-02-15T06:05:21.644Z,96.20
2019-02-15T06:07:52.255Z,96.20
2019-02-15T06:10:23.168Z,96.40
2019-02-15T06:12:53.720Z,96.50
2019-02-15T06:15:24.249Z,96.50
2019-02-15T06:17:55.855Z,96.70
2019-02-15T06:20:26.509Z,97.00
2019-02-15T06:22:57.056Z,97.00
2019-02-15T06:25:27.635Z,97.20
2019-02-15T06:27:58.176Z,97.30
2019-02-15T06:30:28.820Z,97.60
2019-02-15T06:32:59.444Z,97.80
2019-02-15T06:35:33.105Z,98.10
2019-02-15T06:38:04.827Z,98.10
2019-02-15T06:40:35.395Z,98.10
2019-02-15T06:43:05.921Z,98.20
2019-02-15T06:45:36.921Z,98.30
2019-02-15T06:48:11.040Z,98.50
2019-02-15T06:50:41.688Z,98.50
2019-02-15T06:53:12.435Z,98.80
2019-02-15T06:55:43.082Z,98.70
2019-02-15T06:58:13.634Z,98.70
2019-02-15T07:01:02.617Z,98.70
2019-02-15T07:03:58.803Z,98.70
2019-02-15T07:06:29.415Z,98.80
2019-02-15T07:09:00.023Z,98.80
2019-02-15T07:11:30.647Z,98.70
2019-02-15T07:14:01.428Z,98.80
2019-02-15T07:16:32.049Z,98.90
2019-02-15T07:19:02.578Z,98.90
2019-02-15T07:21:33.606Z,98.80
2019-02-15T07:24:04.137Z,98.80
2019-02-15T07:26:35.194Z,98.80
2019-02-15T07:29:05.796Z,98.50
2019-02-15T07:31:37.964Z,98.40
2019-02-15T07:34:08.470Z,98.40
2019-02-15T07:36:39.060Z,98.40
2019-02-15T07:39:09.565Z,98.30
2019-02-15T07:41:40.192Z,98.00
2019-02-15T07:44:11.353Z,97.80
2019-02-15T07:46:42.030Z,97.50
2019-02-15T07:49:12.700Z,97.30
2019-02-15T07:51:43.163Z,97.00
2019-02-15T07:54:13.711Z,96.90
2019-02-15T07:56:44.341Z,96.50
2019-02-15T07:59:14.850Z,95.90
2019-02-15T08:01:45.628Z,95.30
2019-02-15T08:04:17.348Z,94.90
2019-02-15T08:06:48.042Z,94.30
2019-02-15T08:09:19.661Z,93.20
2019-02-15T08:11:50.127Z,91.60
2019-02-15T08:14:23.902Z,90.00
2019-02-15T08:16:54.570Z,88.70
2019-02-15T08:19:25.074Z,87.00
2019-02-15T08:21:55.613Z,84.40
2019-02-15T08:24:26.170Z,82.70
2019-02-15T08:26:56.878Z,81.00
2019-02-15T08:29:27.774Z,79.50
2019-02-15T08:31:58.412Z,77.90
2019-02-15T08:34:29.120Z,77.30
2019-02-15T08:36:59.668Z,76.50
2019-02-15T08:39:30.179Z,75.70
2019-02-15T08:42:03.825Z,74.90
2019-02-15T08:44:32.904Z,74.10
2019-02-15T08:47:03.434Z,73.70
2019-02-15T08:49:34.065Z,73.50
2019-02-15T08:52:04.648Z,73.00
2019-02-15T08:54:35.285Z,72.40
2019-02-15T08:57:05.783Z,72.30
2019-02-15T08:59:36.402Z,72.00
2019-02-15T09:02:25.811Z,71.60
2019-02-15T09:04:57.534Z,71.10
2019-02-15T09:07:28.042Z,70.90
2019-02-15T09:09:58.653Z,70.80
2019-02-15T09:12:29.366Z,70.70
2019-02-15T09:15:00.071Z,70.30
2019-02-15T09:17:30.694Z,69.80
2019-02-15T09:20:01.232Z,69.70
2019-02-15T09:22:33.403Z,69.60
2019-02-15T09:25:03.873Z,69.60
2019-02-15T09:27:51.812Z,69.20
2019-02-15T09:30:31.161Z,69.00
2019-02-15T09:33:01.711Z,68.80
2019-02-15T09:35:34.601Z,68.90
2019-02-15T09:38:05.044Z,68.70
2019-02-15T09:40:35.591Z,68.70
2019-02-15T09:43:06.149Z,68.40
2019-02-15T09:45:36.829Z,68.30
2019-02-15T09:48:07.372Z,68.20
2019-02-15T09:50:38.033Z,68.10
2019-02-15T09:53:08.637Z,67.90
2019-02-15T09:55:39.172Z,67.50
2019-02-15T09:58:09.882Z,67.50
2019-02-15T10:00:40.331Z,67.50
2019-02-15T10:03:12.906Z,67.50
2019-02-15T10:05:44.706Z,67.10
2019-02-15T10:08:16.289Z,67.00
2019-02-15T10:10:47.044Z,67.00
2019-02-15T10:13:17.784Z,67.30
2019-02-15T10:15:48.973Z,67.20
2019-02-15T10:18:19.618Z,67.10
2019-02-15T10:20:51.683Z,66.50
2019-02-15T10:23:23.661Z,66.40
2019-02-15T10:25:54.299Z,66.60
2019-02-15T10:28:27.658Z,66.40
2019-02-15T10:30:58.438Z,66.50
2019-02-15T10:33:29.011Z,66.20
2019-02-15T10:35:59.782Z,66.40
2019-02-15T10:38:32.218Z,65.90
2019-02-15T10:41:03.022Z,66.00
2019-02-15T10:43:33.843Z,65.60
2019-02-15T10:46:04.815Z,65.50
2019-02-15T10:48:35.831Z,65.30
2019-02-15T10:51:06.282Z,65.40
2019-02-15T10:53:36.927Z,65.20
2019-02-15T10:56:07.618Z,65.40
2019-02-15T10:58:38.195Z,64.60
2019-02-15T11:01:08.731Z,64.10
2019-02-15T11:03:39.321Z,64.20
2019-02-15T11:06:10.047Z,63.10
2019-02-15T11:08:40.715Z,61.80
2019-02-15T11:11:11.330Z,59.60
2019-02-15T11:13:41.773Z,57.50
2019-02-15T11:16:12.334Z,56.30
2019-02-15T11:18:44.579Z,55.70
2019-02-15T11:21:15.199Z,56.00
2019-02-15T11:23:45.792Z,55.50
2019-02-15T11:26:24.367Z,54.90
2019-02-15T11:28:50.272Z,54.40
2019-02-15T11:31:20.775Z,54.20
2019-02-15T11:33:52.639Z,53.80
2019-02-15T11:36:23.191Z,52.90
2019-02-15T11:38:54.407Z,53.20
2019-02-15T11:41:25.707Z,52.70
2019-02-15T11:43:56.791Z,52.40
2019-02-15T11:46:28.248Z,52.10
2019-02-15T11:48:58.752Z,52.00
2019-02-15T11:51:29.236Z,52.50
2019-02-15T11:53:59.789Z,52.40
2019-02-15T11:56:30.284Z,52.10
2019-02-15T11:59:03.552Z,51.60
2019-02-15T12:01:34.039Z,51.40
2019-02-15T12:04:04.619Z,50.90
2019-02-15T12:06:38.722Z,51.20
2019-02-15T12:09:09.202Z,51.70
2019-02-15T12:11:40.074Z,50.70
2019-02-15T12:14:10.714Z,50.30
2019-02-15T12:16:41.284Z,51.10
2019-02-15T12:19:11.891Z,52.00
2019-02-15T12:21:44.913Z,51.80
2019-02-15T12:24:15.500Z,51.40
2019-02-15T12:26:46.508Z,51.10
2019-02-15T12:29:16.970Z,51.90
2019-02-15T12:31:47.525Z,51.90
2019-02-15T12:34:18.072Z,51.00
2019-02-15T12:36:48.830Z,50.50
2019-02-15T12:39:19.339Z,49.60
2019-02-15T12:41:49.927Z,49.50
2019-02-15T12:44:20.390Z,49.60
2019-02-15T12:46:50.917Z,48.90
2019-02-15T12:49:22.568Z,49.20
2019-02-15T12:51:53.131Z,50.30
2019-02-15T12:54:23.770Z,50.10
2019-02-15T12:56:54.553Z,49.90
2019-02-15T12:59:25.125Z,50.10
2019-02-15T13:01:55.579Z,49.60
2019-02-15T13:04:26.150Z,49.50
2019-02-15T13:06:57.139Z,49.70
2019-02-15T13:09:27.703Z,49.30
2019-02-15T13:11:59.463Z,48.50
2019-02-15T13:14:33.188Z,48.00
2019-02-15T13:17:03.720Z,48.00
2019-02-15T13:19:34.325Z,47.60
2019-02-15T13:22:04.900Z,47.60
2019-02-15T13:24:35.636Z,47.80
2019-02-15T13:27:06.285Z,47.20
2019-02-15T13:29:36.819Z,47.20
2019-02-15T13:32:07.963Z,47.50
2019-02-15T13:34:38.625Z,47.40
2019-02-15T13:37:09.242Z,47.10
2019-02-15T13:39:40.115Z,47.20
2019-02-15T13:42:10.652Z,47.20
2019-02-15T13:44:41.294Z,46.80
2019-02-15T13:47:11.806Z,46.60
2019-02-15T13:49:42.437Z,46.80
2019-02-15T13:52:14.009Z,47.40
2019-02-15T13:54:44.581Z,47.50
2019-02-15T13:57:15.126Z,47.80
2019-02-15T13:59:45.747Z,47.90
2019-02-15T14:02:17.421Z,48.20
2019-02-15T14:04:48.157Z,47.70
2019-02-15T14:07:21.167Z,47.90
2019-02-15T14:09:54.054Z,47.00
2019-02-15T14:12:25.241Z,47.40
2019-02-15T14:15:08.969Z,47.70
2019-02-15T14:17:44.750Z,47.80
2019-02-15T14:20:13.693Z,47.50
2019-02-15T14:22:44.512Z,47.60
2019-02-15T14:25:15.272Z,48.00
2019-02-15T14:27:45.948Z,47.70
2019-02-15T14:30:16.523Z,47.70
2019-02-15T14:32:51.294Z,47.20
2019-02-15T14:35:24.108Z,46.80
2019-02-15T14:37:56.328Z,46.90
2019-02-15T14:40:26.827Z,47.20
2019-02-15T14:42:58.445Z,47.60
2019-02-15T14:45:30.016Z,47.40
2019-02-15T14:48:02.569Z,47.40
2019-02-15T14:50:34.730Z,47.60
2019-02-15T14:53:06.670Z,47.60
2019-02-15T14:55:38.659Z,47.50
2019-02-15T14:58:10.563Z,47.50
2019-02-15T15:00:42.785Z,47.20
2019-02-15T15:03:15.451Z,46.60
2019-02-15T15:05:49.081Z,46.90
2019-02-15T15:08:21.128Z,46.90
2019-02-15T15:10:53.308Z,47.20
2019-02-15T15:13:23.898Z,47.40
2019-02-15T15:15:54.428Z,47.20
2019-02-15T15:18:25.081Z,47.20
2019-02-15T15:20:58.089Z,47.50
2019-02-15T15:23:28.830Z,47.70
2019-02-15T15:25:59.464Z,47.50
2019-02-15T15:28:30.082Z,47.00
2019-02-15T15:31:00.650Z,47.10
2019-02-15T15:33:31.275Z,46.90
2019-02-15T15:36:01.806Z,47.10
2019-02-15T15:38:32.295Z,47.00
2019-02-15T15:41:02.873Z,48.00
2019-02-15T15:43:33.659Z,49.60
2019-02-15T15:46:04.360Z,51.30
2019-02-15T15:48:35.026Z,52.70
2019-02-15T15:51:05.667Z,53.80
2019-02-15T15:53:36.377Z,54.90
2019-02-15T15:56:07.101Z,55.50
2019-02-15T15:58:37.890Z,56.00
2019-02-15T16:01:08.495Z,56.40
2019-02-15T16:03:39.083Z,56.80
2019-02-15T16:06:09.953Z,57.40
2019-02-15T16:08:41.126Z,57.60
2019-02-15T16:11:11.874Z,58.00
2019-02-15T16:13:42.696Z,58.00
2019-02-15T16:16:13.433Z,58.20
2019-02-15T16:18:45.671Z,58.60
2019-02-15T16:21:18.213Z,58.70
2019-02-15T16:23:52.460Z,59.10
2019-02-15T16:26:25.424Z,59.50
2019-02-15T16:28:59.233Z,60.10
2019-02-15T16:31:31.639Z,60.60
2019-02-15T16:34:04.881Z,60.90
2019-02-15T16:36:37.908Z,61.30
2019-02-15T16:39:10.808Z,61.60
2019-02-15T16:41:43.221Z,61.70
2019-02-15T16:44:15.599Z,61.60
2019-02-15T16:46:49.739Z,61.70
2019-02-15T16:49:22.552Z,61.90
2019-02-15T16:51:54.180Z,62.00
2019-02-15T16:54:26.418Z,62.30
2019-02-15T16:56:58.590Z,62.40
2019-02-15T16:59:30.562Z,62.70
2019-02-15T17:02:02.901Z,63.00
2019-02-15T17:04:34.971Z,63.20
2019-02-15T17:07:07.415Z,63.70
2019-02-15T17:09:39.554Z,64.10
2019-02-15T17:12:12.219Z,64.50
2019-02-15T17:14:44.892Z,64.80
2019-02-15T17:17:18.755Z,65.00
2019-02-15T17:19:52.787Z,65.40
2019-02-15T17:22:25.480Z,65.60
2019-02-15T17:24:57.478Z,66.00
2019-02-15T17:27:34.086Z,66.20
2019-02-15T17:30:06.312Z,66.00
2019-02-15T17:32:40.351Z,66.10
2019-02-15T17:35:13.130Z,66.10
2019-02-15T17:37:49.052Z,66.10
2019-02-15T17:40:21.089Z,66.30
2019-02-15T17:42:53.832Z,66.40
2019-02-15T17:45:27.949Z,66.60
2019-02-15T17:48:00.019Z,66.60
2019-02-15T17:50:33.246Z,66.50
2019-02-15T17:53:05.841Z,66.40
2019-02-15T17:55:38.765Z,66.40
2019-02-15T17:58:11.001Z,66.50
2019-02-15T18:00:44.040Z,66.50
2019-02-15T18:03:17.055Z,66.30
2019-02-15T18:05:50.689Z,66.30
2019-02-15T18:08:26.927Z,66.20
2019-02-15T18:11:01.059Z,66.20
2019-02-15T18:13:36.960Z,66.10
2019-02-15T18:16:09.887Z,66.10
2019-02-15T18:18:42.786Z,66.30
2019-02-15T18:21:17.651Z,66.30
2019-02-15T18:23:49.630Z,66.40
2019-02-15T18:26:23.920Z,66.50
2019-02-15T18:28:56.551Z,66.60
2019-02-15T18:31:30.087Z,66.70
2019-02-15T18:34:03.498Z,66.80
2019-02-15T18:36:35.792Z,67.00
2019-02-15T18:39:08.945Z,67.10
2019-02-15T18:41:41.848Z,67.20
2019-02-15T18:44:14.946Z,67.30
2019-02-15T18:46:48.070Z,67.40
2019-02-15T18:49:23.203Z,67.50
2019-02-15T18:51:55.723Z,67.50
2019-02-15T18:54:28.301Z,67.60
2019-02-15T18:57:03.016Z,67.70
2019-02-15T18:59:37.010Z,67.60
2019-02-15T19:02:09.259Z,67.40
2019-02-15T19:04:41.689Z,67.40
2019-02-15T19:07:13.735Z,67.40
2019-02-15T19:09:46.189Z,67.40
2019-02-15T19:12:18.771Z,67.40
2019-02-15T19:14:53.444Z,67.50
2019-02-15T19:17:26.625Z,67.60
2019-02-15T19:20:01.548Z,67.60
2019-02-15T19:22:39.794Z,67.70
2019-02-15T19:25:14.488Z,67.60
2019-02-15T19:27:48.769Z,67.60
2019-02-15T19:30:23.387Z,67.70
2019-02-15T19:32:57.280Z,67.70
2019-02-15T19:35:31.090Z,67.60
2019-02-15T19:38:05.568Z,67.40
2019-02-15T19:40:39.919Z,67.40
2019-02-15T19:43:14.553Z,67.40
2019-02-15T19:45:48.282Z,67.40
2019-02-15T19:48:23.287Z,67.50
2019-02-15T19:50:56.715Z,67.50
2019-02-15T19:53:30.454Z,67.50
2019-02-15T19:56:04.405Z,67.50
2019-02-15T19:58:38.329Z,67.40
2019-02-15T20:01:12.350Z,67.40
2019-02-15T20:03:45.606Z,67.30
2019-02-15T20:06:19.324Z,67.20
2019-02-15T20:08:55.809Z,67.20
2019-02-15T20:11:30.294Z,67.20
2019-02-15T20:14:05.193Z,67.30
2019-02-15T20:16:39.986Z,67.30
2019-02-15T20:19:13.766Z,67.40
2019-02-15T20:21:47.965Z,67.60
2019-02-15T20:24:21.716Z,67.60
2019-02-15T20:26:56.444Z,67.60
2019-02-15T20:29:29.320Z,67.70
2019-02-15T20:32:02.957Z,67.80
2019-02-15T20:34:45.142Z,67.80
2019-02-15T20:37:13.363Z,67.90
2019-02-15T20:39:47.009Z,67.80
2019-02-15T20:42:21.907Z,67.80
2019-02-15T20:44:56.800Z,68.10
2019-02-15T20:47:30.525Z,68.20
2019-02-15T20:50:04.482Z,68.40
2019-02-15T20:52:38.671Z,68.60
2019-02-15T20:55:16.409Z,68.80
2019-02-15T20:57:51.131Z,68.90
2019-02-15T21:00:26.611Z,68.90
2019-02-15T21:03:05.796Z,69.00
2019-02-15T21:05:39.514Z,69.20
2019-02-15T21:08:12.914Z,69.30
2019-02-15T21:10:54.232Z,69.50
2019-02-15T21:13:21.235Z,69.50
2019-02-15T21:15:56.548Z,69.50
2019-02-15T21:18:29.729Z,69.60
2019-02-15T21:21:05.210Z,69.70
2019-02-15T21:23:54.758Z,69.90
2019-02-15T21:26:41.891Z,69.90
2019-02-15T21:29:42.487Z,69.90
2019-02-15T21:32:16.942Z,70.00
2019-02-15T21:34:49.570Z,70.00
2019-02-15T21:37:22.318Z,69.90
2019-02-15T21:39:55.807Z,70.00
2019-02-15T21:42:28.436Z,70.30
2019-02-15T21:45:00.995Z,70.50
2019-02-15T21:47:35.135Z,70.60
2019-02-15T21:50:16.679Z,70.80
2019-02-15T21:52:44.425Z,71.00
2019-02-15T21:55:17.183Z,71.20
2019-02-15T21:57:50.072Z,71.60
2019-02-15T22:00:23.309Z,71.70
2019-02-15T22:02:55.837Z,71.80
2019-02-15T22:05:28.243Z,72.00
2019-02-15T22:11:27.483Z,72.00
2019-02-15T22:14:01.006Z,72.00
2019-02-15T22:16:34.535Z,72.20
2019-02-15T22:19:07.730Z,72.40
2019-02-15T22:21:40.361Z,72.40
2019-02-15T22:24:14.262Z,72.70
2019-02-15T22:26:46.704Z,72.80
2019-02-15T22:29:19.755Z,73.00
2019-02-15T22:31:52.419Z,73.10
2019-02-15T22:34:25.720Z,73.00
2019-02-15T22:36:58.063Z,73.10
2019-02-15T22:39:30.495Z,72.90
2019-02-15T22:42:03.729Z,72.80
2019-02-15T22:44:36.028Z,72.90
2019-02-15T22:47:08.608Z,73.10
2019-02-15T22:49:43.380Z,73.10
2019-02-15T22:52:15.500Z,73.20
2019-02-15T22:54:52.188Z,73.20
2019-02-15T22:57:25.952Z,73.20
2019-02-15T23:00:01.055Z,73.40
2019-02-15T23:02:33.307Z,73.50
2019-02-15T23:05:08.189Z,73.80
2019-02-15T23:07:40.658Z,74.00
2019-02-15T23:10:14.097Z,74.20
2019-02-15T23:12:47.850Z,74.40
2019-02-15T23:15:23.445Z,74.60
2019-02-15T23:17:55.404Z,74.50
2019-02-15T23:20:30.067Z,74.60
2019-02-15T23:23:02.127Z,75.00
2019-02-15T23:25:35.281Z,75.10
2019-02-15T23:28:07.574Z,75.50
2019-02-15T23:30:41.470Z,75.60
2019-02-15T23:33:16.807Z,75.90
2019-02-15T23:35:49.270Z,75.90
2019-02-15T23:38:23.959Z,76.00
2019-02-15T23:40:56.402Z,76.00
2019-02-15T23:43:28.848Z,76.00
2019-02-15T23:46:01.268Z,76.00
2019-02-15T23:48:33.534Z,76.30
2019-02-15T23:51:05.602Z,76.40
2019-02-15T23:53:37.994Z,76.30
2019-02-15T23:56:10.576Z,76.20
2019-02-15T23:58:42.951Z,76.00
